createdAt,value
2019-02-14T00:00:22.825Z,1029.48
2019-02-14T00:01:22.780Z,1029.48
2019-02-14T00:02:22.726Z,1029.47
2019-02-14T00:03:22.674Z,1029.53
2019-02-14T00:04:22.627Z,1029.51
2019-02-14T00:05:22.577Z,1029.50
2019-02-14T00:06:22.525Z,1029.51
2019-02-14T00:07:22.475Z,1029.53
2019-02-14T00:08:22.425Z,1029.57
2019-02-14T00:09:22.375Z,1029.58
2019-02-14T00:10:22.326Z,1029.58
2019-02-14T00:11:22.275Z,1029.61
2019-02-14T00:12:22.227Z,1029.55
2019-02-14T00:13:22.176Z,1029.54
2019-02-14T00:14:22.126Z,1029.54
2019-02-14T00:15:22.075Z,1029.56
2019-02-14T00:16:22.026Z,1029.56
2019-02-14T00:17:21.976Z,1029.54
2019-02-14T00:18:21.976Z,1029.56
2019-02-14T00:19:21.876Z,1029.53
2019-02-14T00:20:21.825Z,1029.48
2019-02-14T00:21:21.778Z,1029.48
2019-02-14T00:22:21.728Z,1029.47
2019-02-14T00:23:21.677Z,1029.51
2019-02-14T00:24:21.626Z,1029.52
2019-02-14T00:25:21.576Z,1029.49
2019-02-14T00:26:21.527Z,1029.52
2019-02-14T00:27:21.793Z,1029.57
2019-02-14T00:28:21.426Z,1029.53
2019-02-14T00:29:21.376Z,1029.54
2019-02-14T00:30:21.326Z,1029.58
2019-02-14T00:31:21.276Z,1029.60
2019-02-14T00:32:21.228Z,1029.61
2019-02-14T00:33:21.180Z,1029.62
2019-02-14T00:34:21.127Z,1029.60
2019-02-14T00:35:25.122Z,1029.66
2019-02-14T00:36:21.026Z,1029.63
2019-02-14T00:37:20.978Z,1029.64
2019-02-14T00:38:20.927Z,1029.64
2019-02-14T00:39:20.876Z,1029.67
2019-02-14T00:40:20.826Z,1029.64
2019-02-14T00:41:20.777Z,1029.70
2019-02-14T00:42:20.727Z,1029.69
2019-02-14T00:43:20.676Z,1029.65
2019-02-14T00:44:20.627Z,1029.66
2019-02-14T00:45:20.577Z,1029.67
2019-02-14T00:46:20.528Z,1029.68
2019-02-14T00:47:20.477Z,1029.69
2019-02-14T00:48:20.427Z,1029.69
2019-02-14T00:49:20.379Z,1029.70
2019-02-14T00:50:20.329Z,1029.69
2019-02-14T00:51:20.277Z,1029.69
2019-02-14T00:52:20.228Z,1029.67
2019-02-14T00:53:20.184Z,1029.68
2019-02-14T00:54:20.128Z,1029.66
2019-02-14T00:55:20.077Z,1029.64
2019-02-14T00:56:20.078Z,1029.64
2019-02-14T00:57:19.978Z,1029.68
2019-02-14T00:58:19.928Z,1029.70
2019-02-14T00:59:19.877Z,1029.73
2019-02-14T01:00:19.827Z,1029.70
2019-02-14T01:01:19.778Z,1029.67
2019-02-14T01:02:19.734Z,1029.73
2019-02-14T01:03:19.678Z,1029.68
2019-02-14T01:04:19.628Z,1029.71
2019-02-14T01:05:19.578Z,1029.70
2019-02-14T01:06:19.531Z,1029.69
2019-02-14T01:07:19.477Z,1029.74
2019-02-14T01:08:19.428Z,1029.70
2019-02-14T01:09:19.379Z,1029.71
2019-02-14T01:10:19.330Z,1029.71
2019-02-14T01:11:19.282Z,1029.69
2019-02-14T01:12:19.231Z,1029.67
2019-02-14T01:13:19.179Z,1029.65
2019-02-14T01:14:19.128Z,1029.66
2019-02-14T01:15:19.079Z,1029.63
2019-02-14T01:16:19.028Z,1029.67
2019-02-14T01:17:18.980Z,1029.60
2019-02-14T01:18:18.929Z,1029.59
2019-02-14T01:19:18.879Z,1029.61
2019-02-14T01:20:18.829Z,1029.58
2019-02-14T01:21:18.782Z,1029.59
2019-02-14T01:22:18.732Z,1029.67
2019-02-14T01:23:18.680Z,1029.69
2019-02-14T01:24:18.628Z,1029.68
2019-02-14T01:25:18.580Z,1029.62
2019-02-14T01:26:18.530Z,1029.67
2019-02-14T01:27:18.480Z,1029.71
2019-02-14T01:28:18.436Z,1029.67
2019-02-14T01:29:18.379Z,1029.64
2019-02-14T01:30:18.331Z,1029.64
2019-02-14T01:31:18.279Z,1029.62
2019-02-14T01:32:18.229Z,1029.61
2019-02-14T01:33:18.179Z,1029.60
2019-02-14T01:34:18.131Z,1029.60
2019-02-14T01:35:18.080Z,1029.57
2019-02-14T01:36:18.031Z,1029.54
2019-02-14T01:37:17.981Z,1029.60
2019-02-14T01:38:18.298Z,1029.57
2019-02-14T01:39:17.883Z,1029.57
2019-02-14T01:40:17.831Z,1029.56
2019-02-14T01:41:17.783Z,1029.59
2019-02-14T01:42:17.731Z,1029.53
2019-02-14T01:43:17.681Z,1029.51
2019-02-14T01:44:17.631Z,1029.50
2019-02-14T01:45:17.583Z,1029.51
2019-02-14T01:46:17.532Z,1029.52
2019-02-14T01:47:17.481Z,1029.51
2019-02-14T01:48:17.431Z,1029.50
2019-02-14T01:49:17.382Z,1029.47
2019-02-14T01:50:17.332Z,1029.46
2019-02-14T01:51:17.281Z,1029.46
2019-02-14T01:52:17.234Z,1029.44
2019-02-14T01:53:17.181Z,1029.46
2019-02-14T01:54:17.132Z,1029.43
2019-02-14T01:55:17.083Z,1029.42
2019-02-14T01:56:17.032Z,1029.44
2019-02-14T01:57:16.983Z,1029.42
2019-02-14T01:58:16.931Z,1029.44
2019-02-14T01:59:16.881Z,1029.43
2019-02-14T02:00:16.833Z,1029.45
2019-02-14T02:01:16.781Z,1029.45
2019-02-14T02:02:16.733Z,1029.45
2019-02-14T02:03:16.682Z,1029.43
2019-02-14T02:04:16.632Z,1029.48
2019-02-14T02:05:16.582Z,1029.47
2019-02-14T02:06:16.538Z,1029.49
2019-02-14T02:07:16.483Z,1029.50
2019-02-14T02:08:16.433Z,1029.48
2019-02-14T02:09:16.383Z,1029.55
2019-02-14T02:10:16.335Z,1029.53
2019-02-14T02:11:16.284Z,1029.53
2019-02-14T02:12:16.233Z,1029.54
2019-02-14T02:13:16.183Z,1029.53
2019-02-14T02:14:16.134Z,1029.54
2019-02-14T02:15:16.085Z,1029.55
2019-02-14T02:16:16.033Z,1029.53
2019-02-14T02:17:15.984Z,1029.54
2019-02-14T02:18:15.934Z,1029.55
2019-02-14T02:19:15.883Z,1029.54
2019-02-14T02:20:15.832Z,1029.54
2019-02-14T02:21:15.782Z,1029.58
2019-02-14T02:22:15.737Z,1029.56
2019-02-14T02:23:15.684Z,1029.59
2019-02-14T02:24:15.633Z,1029.61
2019-02-14T02:25:15.586Z,1029.64
2019-02-14T02:26:15.534Z,1029.62
2019-02-14T02:27:15.484Z,1029.65
2019-02-14T02:28:15.434Z,1029.64
2019-02-14T02:29:15.385Z,1029.66
2019-02-14T02:30:15.341Z,1029.67
2019-02-14T02:31:15.289Z,1029.63
2019-02-14T02:32:15.234Z,1029.68
2019-02-14T02:33:15.184Z,1029.62
2019-02-14T02:34:15.135Z,1029.61
2019-02-14T02:35:15.084Z,1029.63
2019-02-14T02:36:15.039Z,1029.60
2019-02-14T02:37:14.983Z,1029.63
2019-02-14T02:38:15.042Z,1029.61
2019-02-14T02:39:14.884Z,1029.55
2019-02-14T02:40:14.835Z,1029.57
2019-02-14T02:41:14.784Z,1029.60
2019-02-14T02:42:14.735Z,1029.58
2019-02-14T02:43:14.684Z,1029.58
2019-02-14T02:44:14.635Z,1029.55
2019-02-14T02:45:14.585Z,1029.59
2019-02-14T02:46:14.546Z,1029.59
2019-02-14T02:47:14.484Z,1029.62
2019-02-14T02:48:14.434Z,1029.60
2019-02-14T02:49:14.389Z,1029.66
2019-02-14T02:50:14.335Z,1029.71
2019-02-14T02:51:14.286Z,1029.67
2019-02-14T02:52:14.236Z,1029.68
2019-02-14T02:53:14.184Z,1029.73
2019-02-14T02:54:14.136Z,1029.74
2019-02-14T02:55:14.146Z,1029.75
2019-02-14T02:56:14.036Z,1029.78
2019-02-14T02:57:14.040Z,1029.81
2019-02-14T02:58:14.035Z,1029.75
2019-02-14T02:59:14.323Z,1029.76
2019-02-14T03:00:13.835Z,1029.80
2019-02-14T03:01:13.787Z,1029.84
2019-02-14T03:02:13.736Z,1029.81
2019-02-14T03:03:13.685Z,1029.80
2019-02-14T03:04:13.636Z,1029.81
2019-02-14T03:05:13.586Z,1029.79
2019-02-14T03:06:13.536Z,1029.85
2019-02-14T03:07:13.486Z,1029.81
2019-02-14T03:08:13.439Z,1029.84
2019-02-14T03:09:13.386Z,1029.89
2019-02-14T03:10:13.335Z,1029.88
2019-02-14T03:11:13.286Z,1029.94
2019-02-14T03:12:13.236Z,1029.92
2019-02-14T03:13:13.187Z,1029.93
2019-02-14T03:14:13.145Z,1029.96
2019-02-14T03:15:13.141Z,1029.96
2019-02-14T03:16:13.087Z,1029.97
2019-02-14T03:17:13.145Z,1029.96
2019-02-14T03:18:12.938Z,1029.96
2019-02-14T03:19:12.888Z,1029.98
2019-02-14T03:20:12.836Z,1029.99
2019-02-14T03:21:12.790Z,1030.01
2019-02-14T03:22:12.736Z,1030.07
2019-02-14T03:23:12.686Z,1030.03
2019-02-14T03:24:12.638Z,1030.03
2019-02-14T03:25:12.589Z,1030.02
2019-02-14T03:26:12.537Z,1030.02
2019-02-14T03:27:12.486Z,1030.01
2019-02-14T03:28:12.437Z,1030.03
2019-02-14T03:29:12.387Z,1030.05
2019-02-14T03:30:12.349Z,1030.05
2019-02-14T03:31:12.287Z,1030.02
2019-02-14T03:32:12.240Z,1030.03
2019-02-14T03:33:12.203Z,1030.01
2019-02-14T03:34:12.138Z,1030.02
2019-02-14T03:35:12.086Z,1030.00
2019-02-14T03:36:18.794Z,1029.95
2019-02-14T03:37:11.988Z,1029.95
2019-02-14T03:38:11.937Z,1029.96
2019-02-14T03:39:11.938Z,1029.97
2019-02-14T03:40:11.839Z,1029.93
2019-02-14T03:41:11.788Z,1029.92
2019-02-14T03:42:11.738Z,1029.89
2019-02-14T03:43:11.686Z,1029.88
2019-02-14T03:44:11.640Z,1029.90
2019-02-14T03:45:11.588Z,1029.89
2019-02-14T03:46:11.542Z,1029.90
2019-02-14T03:47:11.488Z,1029.95
2019-02-14T03:48:11.438Z,1029.98
2019-02-14T03:49:11.388Z,1029.97
2019-02-14T03:50:11.345Z,1029.95
2019-02-14T03:51:11.288Z,1029.95
2019-02-14T03:52:11.246Z,1029.93
2019-02-14T03:53:11.189Z,1029.98
2019-02-14T03:54:11.139Z,1029.97
2019-02-14T03:55:11.088Z,1029.98
2019-02-14T03:56:11.039Z,1030.00
2019-02-14T03:57:10.988Z,1029.99
2019-02-14T03:58:10.991Z,1029.99
2019-02-14T03:59:10.895Z,1029.97
2019-02-14T04:00:10.839Z,1030.00
2019-02-14T04:01:10.789Z,1030.05
2019-02-14T04:02:10.753Z,1030.06
2019-02-14T04:03:10.689Z,1030.08
2019-02-14T04:04:10.639Z,1030.08
2019-02-14T04:05:10.590Z,1030.09
2019-02-14T04:06:10.540Z,1030.09
2019-02-14T04:07:10.489Z,1030.10
2019-02-14T04:08:10.439Z,1030.09
2019-02-14T04:09:10.397Z,1030.04
2019-02-14T04:10:10.343Z,1030.06
2019-02-14T04:11:10.289Z,1030.05
2019-02-14T04:12:10.241Z,1030.07
2019-02-14T04:13:10.190Z,1030.08
2019-02-14T04:14:10.140Z,1030.14
2019-02-14T04:15:10.089Z,1030.16
2019-02-14T04:16:10.039Z,1030.18
2019-02-14T04:17:09.989Z,1030.19
2019-02-14T04:18:09.990Z,1030.23
2019-02-14T04:19:09.889Z,1030.27
2019-02-14T04:20:09.842Z,1030.27
2019-02-14T04:21:09.790Z,1030.26
2019-02-14T04:22:09.740Z,1030.22
2019-02-14T04:23:09.690Z,1030.24
2019-02-14T04:24:09.641Z,1030.27
2019-02-14T04:25:09.593Z,1030.26
2019-02-14T04:26:09.540Z,1030.26
2019-02-14T04:27:09.489Z,1030.24
2019-02-14T04:28:09.440Z,1030.24
2019-02-14T04:29:09.391Z,1030.20
2019-02-14T04:30:09.341Z,1030.19
2019-02-14T04:31:09.290Z,1030.21
2019-02-14T04:32:09.240Z,1030.17
2019-02-14T04:33:09.192Z,1030.18
2019-02-14T04:34:09.142Z,1030.17
2019-02-14T04:35:09.089Z,1030.19
2019-02-14T04:36:09.039Z,1030.19
2019-02-14T04:37:09.041Z,1030.20
2019-02-14T04:38:08.941Z,1030.23
2019-02-14T04:39:08.892Z,1030.22
2019-02-14T04:40:08.841Z,1030.24
2019-02-14T04:41:08.794Z,1030.22
2019-02-14T04:42:08.741Z,1030.24
2019-02-14T04:43:08.691Z,1030.25
2019-02-14T04:44:08.642Z,1030.21
2019-02-14T04:45:08.600Z,1030.16
2019-02-14T04:46:08.541Z,1030.18
2019-02-14T04:47:08.490Z,1030.14
2019-02-14T04:48:08.441Z,1030.18
2019-02-14T04:49:08.391Z,1030.20
2019-02-14T04:50:08.341Z,1030.19
2019-02-14T04:51:08.290Z,1030.22
2019-02-14T04:52:08.252Z,1030.21
2019-02-14T04:53:08.191Z,1030.22
2019-02-14T04:54:08.141Z,1030.23
2019-02-14T04:55:08.090Z,1030.21
2019-02-14T04:56:08.042Z,1030.20
2019-02-14T04:57:07.991Z,1030.15
2019-02-14T04:58:07.942Z,1030.13
2019-02-14T04:59:07.941Z,1030.14
2019-02-14T05:00:07.841Z,1030.13
2019-02-14T05:01:07.791Z,1030.18
2019-02-14T05:02:07.742Z,1030.23
2019-02-14T05:03:07.695Z,1030.26
2019-02-14T05:04:07.641Z,1030.29
2019-02-14T05:05:07.590Z,1030.30
2019-02-14T05:06:07.540Z,1030.35
2019-02-14T05:07:07.490Z,1030.34
2019-02-14T05:08:07.441Z,1030.38
2019-02-14T05:09:07.392Z,1030.40
2019-02-14T05:10:07.342Z,1030.41
2019-02-14T05:11:07.291Z,1030.48
2019-02-14T05:12:07.241Z,1030.48
2019-02-14T05:13:07.192Z,1030.50
2019-02-14T05:14:07.142Z,1030.50
2019-02-14T05:15:07.092Z,1030.49
2019-02-14T05:16:07.040Z,1030.55
2019-02-14T05:17:06.992Z,1030.51
2019-02-14T05:18:06.942Z,1030.55
2019-02-14T05:19:06.942Z,1030.55
2019-02-14T05:20:06.841Z,1030.57
2019-02-14T05:21:06.792Z,1030.60
2019-02-14T05:22:06.745Z,1030.59
2019-02-14T05:23:06.693Z,1030.57
2019-02-14T05:24:06.642Z,1030.57
2019-02-14T05:25:06.592Z,1030.59
2019-02-14T05:26:06.541Z,1030.57
2019-02-14T05:27:06.497Z,1030.54
2019-02-14T05:28:06.442Z,1030.49
2019-02-14T05:29:06.392Z,1030.47
2019-02-14T05:30:06.377Z,1030.46
2019-02-14T05:31:06.294Z,1030.46
2019-02-14T05:32:06.245Z,1030.47
2019-02-14T05:33:06.192Z,1030.49
2019-02-14T05:34:06.143Z,1030.45
2019-02-14T05:35:06.092Z,1030.46
2019-02-14T05:36:06.041Z,1030.47
2019-02-14T05:37:05.992Z,1030.48
2019-02-14T05:38:05.993Z,1030.47
2019-02-14T05:39:05.892Z,1030.49
2019-02-14T05:40:05.897Z,1030.47
2019-02-14T05:41:05.792Z,1030.44
2019-02-14T05:42:05.743Z,1030.48
2019-02-14T05:43:05.692Z,1030.42
2019-02-14T05:44:05.643Z,1030.43
2019-02-14T05:45:05.599Z,1030.40
2019-02-14T05:46:05.543Z,1030.39
2019-02-14T05:47:05.494Z,1030.39
2019-02-14T05:48:05.443Z,1030.42
2019-02-14T05:49:05.395Z,1030.45
2019-02-14T05:50:05.343Z,1030.45
2019-02-14T05:51:05.293Z,1030.49
2019-02-14T05:52:05.243Z,1030.44
2019-02-14T05:53:05.193Z,1030.43
2019-02-14T05:54:05.144Z,1030.44
2019-02-14T05:55:05.093Z,1030.40
2019-02-14T05:56:05.043Z,1030.41
2019-02-14T05:57:04.993Z,1030.38
2019-02-14T05:58:04.943Z,1030.34
2019-02-14T05:59:04.895Z,1030.27
2019-02-14T06:00:04.843Z,1030.29
2019-02-14T06:01:04.801Z,1030.25
2019-02-14T06:02:04.743Z,1030.28
2019-02-14T06:03:04.694Z,1030.27
2019-02-14T06:04:04.643Z,1030.27
2019-02-14T06:05:04.593Z,1030.27
2019-02-14T06:06:04.544Z,1030.29
2019-02-14T06:07:04.503Z,1030.32
2019-02-14T06:08:04.446Z,1030.28
2019-02-14T06:09:04.394Z,1030.32
2019-02-14T06:10:04.345Z,1030.38
2019-02-14T06:11:04.297Z,1030.42
2019-02-14T06:12:04.243Z,1030.48
2019-02-14T06:13:04.193Z,1030.49
2019-02-14T06:14:04.144Z,1030.50
2019-02-14T06:15:04.093Z,1030.50
2019-02-14T06:16:04.044Z,1030.53
2019-02-14T06:17:04.001Z,1030.52
2019-02-14T06:18:03.945Z,1030.50
2019-02-14T06:19:03.894Z,1030.51
2019-02-14T06:20:03.843Z,1030.49
2019-02-14T06:21:03.795Z,1030.49
2019-02-14T06:22:03.745Z,1030.49
2019-02-14T06:23:03.694Z,1030.51
2019-02-14T06:24:03.644Z,1030.54
2019-02-14T06:25:03.596Z,1030.62
2019-02-14T06:26:03.548Z,1030.70
2019-02-14T06:27:03.499Z,1030.72
2019-02-14T06:28:03.444Z,1030.70
2019-02-14T06:29:03.395Z,1030.75
2019-02-14T06:30:03.348Z,1030.72
2019-02-14T06:31:03.297Z,1030.74
2019-02-14T06:32:03.245Z,1030.78
2019-02-14T06:33:03.195Z,1030.79
2019-02-14T06:34:03.145Z,1030.85
2019-02-14T06:35:03.095Z,1030.84
2019-02-14T06:36:03.045Z,1030.86
2019-02-14T06:37:09.516Z,1030.89
2019-02-14T06:38:03.045Z,1030.89
2019-02-14T06:39:02.896Z,1030.87
2019-02-14T06:40:02.846Z,1030.82
2019-02-14T06:41:03.661Z,1030.82
2019-02-14T06:42:02.746Z,1030.81
2019-02-14T06:43:02.696Z,1030.79
2019-02-14T06:44:02.645Z,1030.75
2019-02-14T06:45:02.595Z,1030.77
2019-02-14T06:46:02.546Z,1030.78
2019-02-14T06:47:02.496Z,1030.73
2019-02-14T06:48:02.445Z,1030.72
2019-02-14T06:49:02.399Z,1030.70
2019-02-14T06:50:02.357Z,1030.74
2019-02-14T06:51:02.298Z,1030.73
2019-02-14T06:52:02.246Z,1030.72
2019-02-14T06:53:02.197Z,1030.69
2019-02-14T06:54:02.147Z,1030.66
2019-02-14T06:55:02.098Z,1030.70
2019-02-14T06:56:02.047Z,1030.71
2019-02-14T06:57:02.000Z,1030.78
2019-02-14T06:58:01.973Z,1030.82
2019-02-14T06:59:01.902Z,1030.87
2019-02-14T07:00:01.847Z,1030.87
2019-02-14T07:01:01.796Z,1030.93
2019-02-14T07:02:01.749Z,1030.99
2019-02-14T07:03:01.697Z,1031.03
2019-02-14T07:04:01.648Z,1031.03
2019-02-14T07:05:01.596Z,1031.04
2019-02-14T07:06:01.548Z,1031.06
2019-02-14T07:07:01.497Z,1031.07
2019-02-14T07:08:01.448Z,1031.13
2019-02-14T07:09:01.402Z,1031.12
2019-02-14T07:10:01.350Z,1031.12
2019-02-14T07:11:01.300Z,1031.16
2019-02-14T07:12:01.248Z,1031.16
2019-02-14T07:13:01.198Z,1031.16
2019-02-14T07:14:01.147Z,1031.20
2019-02-14T07:15:01.097Z,1031.21
2019-02-14T07:16:01.049Z,1031.21
2019-02-14T07:17:00.999Z,1031.29
2019-02-14T07:18:00.956Z,1031.25
2019-02-14T07:19:00.899Z,1031.31
2019-02-14T07:20:00.848Z,1031.26
2019-02-14T07:21:00.798Z,1031.29
2019-02-14T07:22:00.750Z,1031.22
2019-02-14T07:23:00.703Z,1031.24
2019-02-14T07:24:00.655Z,1031.28
2019-02-14T07:25:00.599Z,1031.33
2019-02-14T07:26:00.554Z,1031.32
2019-02-14T07:27:00.502Z,1031.29
2019-02-14T07:28:00.450Z,1031.31
2019-02-14T07:29:00.400Z,1031.31
2019-02-14T07:30:00.350Z,1031.31
2019-02-14T07:31:00.300Z,1031.35
2019-02-14T07:32:00.250Z,1031.34
2019-02-14T07:33:00.207Z,1031.38
2019-02-14T07:34:00.150Z,1031.34
2019-02-14T07:35:00.270Z,1031.29
2019-02-14T07:36:00.050Z,1031.29
2019-02-14T07:37:00.002Z,1031.34
2019-02-14T07:37:59.951Z,1031.32
2019-02-14T07:38:59.900Z,1031.35
2019-02-14T07:39:59.851Z,1031.33
2019-02-14T07:40:59.801Z,1031.34
2019-02-14T07:41:59.752Z,1031.30
2019-02-14T07:42:59.703Z,1031.31
2019-02-14T07:43:59.652Z,1031.25
2019-02-14T07:44:59.602Z,1031.22
2019-02-14T07:45:59.551Z,1031.22
2019-02-14T07:46:59.502Z,1031.24
2019-02-14T07:47:59.451Z,1031.24
2019-02-14T07:48:59.405Z,1031.30
2019-02-14T07:49:59.356Z,1031.29
2019-02-14T07:50:59.303Z,1031.27
2019-02-14T07:51:59.254Z,1031.30
2019-02-14T07:52:59.204Z,1031.29
2019-02-14T07:53:59.154Z,1031.28
2019-02-14T07:54:59.128Z,1031.25
2019-02-14T07:55:59.056Z,1031.24
2019-02-14T07:56:59.006Z,1031.20
2019-02-14T07:57:58.954Z,1031.19
2019-02-14T07:58:58.904Z,1031.18
2019-02-14T07:59:58.855Z,1031.22
2019-02-14T08:00:58.806Z,1031.24
2019-02-14T08:01:58.754Z,1031.26
2019-02-14T08:02:58.705Z,1031.29
2019-02-14T08:03:58.655Z,1031.31
2019-02-14T08:04:58.605Z,1031.23
2019-02-14T08:05:58.555Z,1031.26
2019-02-14T08:06:58.506Z,1031.26
2019-02-14T08:07:58.458Z,1031.26
2019-02-14T08:08:58.407Z,1031.21
2019-02-14T08:09:58.356Z,1031.23
2019-02-14T08:10:58.307Z,1031.23
2019-02-14T08:11:58.256Z,1031.22
2019-02-14T08:12:58.208Z,1031.19
2019-02-14T08:13:58.158Z,1031.17
2019-02-14T08:14:58.108Z,1031.18
2019-02-14T08:15:58.057Z,1031.20
2019-02-14T08:16:58.008Z,1031.24
2019-02-14T08:17:58.009Z,1031.27
2019-02-14T08:18:59.994Z,1031.27
2019-02-14T08:19:57.859Z,1031.24
2019-02-14T08:20:57.809Z,1031.17
2019-02-14T08:21:57.760Z,1031.15
2019-02-14T08:22:57.708Z,1031.09
2019-02-14T08:23:57.660Z,1031.13
2019-02-14T08:24:57.611Z,1031.12
2019-02-14T08:25:57.561Z,1031.13
2019-02-14T08:26:57.510Z,1031.09
2019-02-14T08:27:57.461Z,1031.09
2019-02-14T08:28:57.411Z,1031.10
2019-02-14T08:29:57.362Z,1031.08
2019-02-14T08:30:57.313Z,1031.07
2019-02-14T08:31:57.262Z,1031.05
2019-02-14T08:32:57.214Z,1031.05
2019-02-14T08:33:57.162Z,1031.04
2019-02-14T08:34:57.113Z,1031.03
2019-02-14T08:35:57.064Z,1031.00
2019-02-14T08:36:57.015Z,1031.03
2019-02-14T08:37:56.965Z,1031.04
2019-02-14T08:38:56.914Z,1031.01
2019-02-14T08:39:56.864Z,1030.98
2019-02-14T08:40:56.818Z,1031.01
2019-02-14T08:41:56.772Z,1031.01
2019-02-14T08:42:58.578Z,1031.01
2019-02-14T08:43:56.666Z,1031.02
2019-02-14T08:44:56.617Z,1030.99
2019-02-14T08:45:56.567Z,1030.99
2019-02-14T08:46:56.517Z,1030.94
2019-02-14T08:47:56.467Z,1030.98
2019-02-14T08:48:56.418Z,1031.01
2019-02-14T08:49:56.368Z,1031.04
2019-02-14T08:50:56.365Z,1031.00
2019-02-14T08:51:56.268Z,1031.01
2019-02-14T08:52:56.219Z,1031.02
2019-02-14T08:53:56.169Z,1030.97
2019-02-14T08:54:56.119Z,1030.98
2019-02-14T08:55:56.071Z,1030.98
2019-02-14T08:56:56.020Z,1030.94
2019-02-14T08:57:55.975Z,1030.96
2019-02-14T08:58:55.971Z,1030.94
2019-02-14T08:59:55.872Z,1030.96
2019-02-14T09:00:55.823Z,1030.95
2019-02-14T09:01:57.522Z,1030.95
2019-02-14T09:02:55.724Z,1030.93
2019-02-14T09:03:55.674Z,1030.97
2019-02-14T09:04:55.629Z,1030.98
2019-02-14T09:05:55.582Z,1031.01
2019-02-14T09:06:55.524Z,1031.04
2019-02-14T09:07:55.482Z,1031.05
2019-02-14T09:08:55.427Z,1031.04
2019-02-14T09:09:55.376Z,1031.04
2019-02-14T09:10:55.326Z,1031.07
2019-02-14T09:11:55.277Z,1031.04
2019-02-14T09:12:55.228Z,1031.09
2019-02-14T09:13:55.179Z,1031.08
2019-02-14T09:14:55.128Z,1031.10
2019-02-14T09:15:55.080Z,1031.10
2019-02-14T09:16:55.030Z,1031.09
2019-02-14T09:17:54.989Z,1031.08
2019-02-14T09:18:54.931Z,1031.04
2019-02-14T09:19:54.935Z,1031.06
2019-02-14T09:20:54.832Z,1031.05
2019-02-14T09:21:54.783Z,1031.09
2019-02-14T09:22:54.733Z,1031.05
2019-02-14T09:23:54.684Z,1031.08
2019-02-14T09:24:54.633Z,1031.06
2019-02-14T09:25:54.586Z,1031.10
2019-02-14T09:26:54.537Z,1031.08
2019-02-14T09:27:54.487Z,1031.11
2019-02-14T09:28:54.437Z,1031.14
2019-02-14T09:29:54.387Z,1031.15
2019-02-14T09:30:54.340Z,1031.16
2019-02-14T09:31:54.289Z,1031.21
2019-02-14T09:32:54.242Z,1031.20
2019-02-14T09:33:54.272Z,1031.23
2019-02-14T09:34:54.140Z,1031.19
2019-02-14T09:35:54.092Z,1031.19
2019-02-14T09:36:54.042Z,1031.20
2019-02-14T09:38:02.762Z,1031.22
2019-02-14T09:38:53.994Z,1031.17
2019-02-14T09:39:53.894Z,1031.23
2019-02-14T09:40:53.852Z,1031.26
2019-02-14T09:41:53.796Z,1031.28
2019-02-14T09:42:53.746Z,1031.33
2019-02-14T09:43:53.696Z,1031.33
2019-02-14T09:44:53.648Z,1031.33
2019-02-14T09:45:53.600Z,1031.40
2019-02-14T09:46:53.619Z,1031.40
2019-02-14T09:47:54.011Z,1031.44
2019-02-14T09:48:53.451Z,1031.48
2019-02-14T09:49:53.402Z,1031.53
2019-02-14T09:50:53.365Z,1031.54
2019-02-14T09:51:53.312Z,1031.55
2019-02-14T09:52:53.253Z,1031.53
2019-02-14T09:53:53.208Z,1031.57
2019-02-14T09:54:53.158Z,1031.54
2019-02-14T09:55:53.109Z,1031.52
2019-02-14T09:56:53.076Z,1031.47
2019-02-14T09:57:53.009Z,1031.43
2019-02-14T09:58:52.958Z,1031.33
2019-02-14T09:59:52.911Z,1031.25
2019-02-14T10:00:52.926Z,1031.22
2019-02-14T10:01:52.811Z,1031.21
2019-02-14T10:02:52.770Z,1031.17
2019-02-14T10:03:52.713Z,1031.18
2019-02-14T10:04:52.665Z,1031.22
2019-02-14T10:05:52.617Z,1031.29
2019-02-14T10:06:52.566Z,1031.28
2019-02-14T10:07:52.516Z,1031.23
2019-02-14T10:08:52.475Z,1031.20
2019-02-14T10:09:52.419Z,1031.17
2019-02-14T10:10:52.374Z,1031.12
2019-02-14T10:11:52.321Z,1031.11
2019-02-14T10:12:52.308Z,1031.07
2019-02-14T10:13:52.225Z,1031.11
2019-02-14T10:14:52.172Z,1031.09
2019-02-14T10:15:52.124Z,1031.07
2019-02-14T10:16:52.074Z,1031.08
2019-02-14T10:17:52.029Z,1031.05
2019-02-14T10:18:51.977Z,1031.08
2019-02-14T10:19:51.984Z,1031.05
2019-02-14T10:20:51.889Z,1031.02
2019-02-14T10:21:51.834Z,1031.00
2019-02-14T10:22:51.781Z,1030.99
2019-02-14T10:23:51.734Z,1031.01
2019-02-14T10:24:52.664Z,1031.01
2019-02-14T10:25:51.634Z,1031.02
2019-02-14T10:26:51.584Z,1031.05
2019-02-14T10:27:51.536Z,1031.07
2019-02-14T10:28:51.486Z,1031.07
2019-02-14T10:29:51.444Z,1031.06
2019-02-14T10:30:51.387Z,1031.09
2019-02-14T10:31:51.340Z,1031.13
2019-02-14T10:32:51.291Z,1031.11
2019-02-14T10:33:51.245Z,1031.17
2019-02-14T10:34:51.191Z,1031.13
2019-02-14T10:35:51.143Z,1031.16
2019-02-14T10:36:51.096Z,1031.15
2019-02-14T10:37:51.049Z,1031.14
2019-02-14T10:38:51.047Z,1031.13
2019-02-14T10:39:50.997Z,1031.15
2019-02-14T10:40:50.898Z,1031.20
2019-02-14T10:41:50.850Z,1031.20
2019-02-14T10:42:50.802Z,1031.19
2019-02-14T10:43:50.750Z,1031.15
2019-02-14T10:44:50.701Z,1031.21
2019-02-14T10:45:50.652Z,1031.18
2019-02-14T10:46:50.604Z,1031.16
2019-02-14T10:47:50.557Z,1031.13
2019-02-14T10:48:50.506Z,1031.16
2019-02-14T10:49:50.458Z,1031.10
2019-02-14T10:50:50.407Z,1031.09
2019-02-14T10:51:50.358Z,1031.08
2019-02-14T10:52:50.310Z,1031.10
2019-02-14T10:53:50.262Z,1031.11
2019-02-14T10:54:50.212Z,1031.09
2019-02-14T10:55:50.162Z,1031.00
2019-02-14T10:56:50.113Z,1030.94
2019-02-14T10:57:50.065Z,1030.93
2019-02-14T10:58:50.016Z,1030.92
2019-02-14T10:59:49.967Z,1030.94
2019-02-14T11:00:49.975Z,1030.94
2019-02-14T11:01:49.870Z,1030.95
2019-02-14T11:02:49.819Z,1030.97
2019-02-14T11:03:49.771Z,1030.86
2019-02-14T11:04:49.722Z,1030.92
2019-02-14T11:05:49.672Z,1030.90
2019-02-14T11:06:49.678Z,1030.88
2019-02-14T11:07:49.574Z,1030.87
2019-02-14T11:08:49.525Z,1030.80
2019-02-14T11:09:49.477Z,1030.79
2019-02-14T11:10:49.426Z,1030.81
2019-02-14T11:11:49.378Z,1030.82
2019-02-14T11:12:49.328Z,1030.78
2019-02-14T11:13:49.279Z,1030.82
2019-02-14T11:14:49.231Z,1030.80
2019-02-14T11:15:49.181Z,1030.81
2019-02-14T11:16:49.133Z,1030.81
2019-02-14T11:17:49.320Z,1030.81
2019-02-14T11:18:49.034Z,1030.82
2019-02-14T11:19:49.040Z,1030.85
2019-02-14T11:20:48.987Z,1030.87
2019-02-14T11:21:48.888Z,1030.88
2019-02-14T11:22:49.399Z,1030.89
2019-02-14T11:23:48.788Z,1030.86
2019-02-14T11:24:48.742Z,1030.87
2019-02-14T11:25:48.690Z,1030.89
2019-02-14T11:26:48.640Z,1030.86
2019-02-14T11:27:48.591Z,1030.83
2019-02-14T11:28:48.546Z,1030.85
2019-02-14T11:29:48.496Z,1030.85
2019-02-14T11:30:48.443Z,1030.82
2019-02-14T11:31:48.400Z,1030.85
2019-02-14T11:32:48.346Z,1030.88
2019-02-14T11:33:48.311Z,1030.87
2019-02-14T11:34:48.247Z,1030.84
2019-02-14T11:35:48.201Z,1030.82
2019-02-14T11:36:48.149Z,1030.84
2019-02-14T11:37:48.101Z,1030.84
2019-02-14T11:38:48.050Z,1030.84
2019-02-14T11:39:48.003Z,1030.82
2019-02-14T11:40:47.953Z,1030.86
2019-02-14T11:41:47.905Z,1030.82
2019-02-14T11:42:47.855Z,1030.86
2019-02-14T11:43:47.806Z,1030.87
2019-02-14T11:44:47.756Z,1030.89
2019-02-14T11:45:47.708Z,1030.84
2019-02-14T11:46:51.593Z,1030.81
2019-02-14T11:47:47.610Z,1030.79
2019-02-14T11:48:48.042Z,1030.81
2019-02-14T11:49:47.512Z,1030.76
2019-02-14T11:50:47.462Z,1030.78
2019-02-14T11:51:47.413Z,1030.79
2019-02-14T11:52:47.363Z,1030.75
2019-02-14T11:53:47.315Z,1030.75
2019-02-14T11:54:47.265Z,1030.80
2019-02-14T11:55:47.216Z,1030.78
2019-02-14T11:56:47.167Z,1030.83
2019-02-14T11:57:47.117Z,1030.80
2019-02-14T11:58:47.068Z,1030.82
2019-02-14T11:59:47.021Z,1030.84
2019-02-14T12:00:46.971Z,1030.79
2019-02-14T12:01:54.995Z,1030.75
2019-02-14T12:02:55.109Z,1030.77
2019-02-14T12:03:46.823Z,1030.74
2019-02-14T12:04:46.774Z,1030.69